Airport View

Enter AWOS ICAO identifier for current METAR.

ex. KFNL

KHLN 191853Z 29020G31KT 10SM CLR 24/M02 A2979 RMK AO2 PK WND 28032/1841 SLP069 T02391017

19 Jun 2019 19:36

Phone: 406-443-4317

Other Area AWOS: KGTF - KBZN - KGFA - KEKS

TAF KHLN 191723Z 1918/2018 27020G30KT P6SM FEW070 SCT250 FM200600 26010G21KT P6SM FEW060 BKN090